sensor_id;sensor_type;location;lat;lon;timestamp;P1;durP1;ratioP1;P2;durP2;ratioP2
15553;SDS011;7878;44.632;10.942;2022-10-30T00:00:25;18.13;;;13.02;;
15553;SDS011;7878;44.632;10.942;2022-10-30T00:02:51;20.27;;;12.98;;
15553;SDS011;7878;44.632;10.942;2022-10-30T00:05:17;22.25;;;13.30;;
15553;SDS011;7878;44.632;10.942;2022-10-30T00:07:44;19.65;;;12.15;;
15553;SDS011;7878;44.632;10.942;2022-10-30T00:10:11;17.05;;;12.65;;
15553;SDS011;7878;44.632;10.942;2022-10-30T00:12:37;20.10;;;12.82;;
15553;SDS011;7878;44.632;10.942;2022-10-30T00:15:02;21.35;;;14.05;;
15553;SDS011;7878;44.632;10.942;2022-10-30T00:17:29;17.98;;;13.68;;
15553;SDS011;7878;44.632;10.942;2022-10-30T00:19:54;18.35;;;14.13;;
15553;SDS011;7878;44.632;10.942;2022-10-30T00:22:20;21.10;;;13.15;;
15553;SDS011;7878;44.632;10.942;2022-10-30T00:24:46;25.92;;;14.02;;
15553;SDS011;7878;44.632;10.942;2022-10-30T00:27:11;19.45;;;13.15;;
15553;SDS011;7878;44.632;10.942;2022-10-30T00:29:37;20.85;;;13.18;;
15553;SDS011;7878;44.632;10.942;2022-10-30T00:32:03;21.15;;;13.23;;
15553;SDS011;7878;44.632;10.942;2022-10-30T00:34:28;22.15;;;14.00;;
15553;SDS011;7878;44.632;10.942;2022-10-30T00:36:54;18.10;;;14.23;;
15553;SDS011;7878;44.632;10.942;2022-10-30T00:39:19;23.75;;;14.02;;
15553;SDS011;7878;44.632;10.942;2022-10-30T00:41:45;21.45;;;13.32;;
15553;SDS011;7878;44.632;10.942;2022-10-30T00:44:34;19.10;;;13.18;;
15553;SDS011;7878;44.632;10.942;2022-10-30T00:47:55;24.85;;;13.15;;
15553;SDS011;7878;44.632;10.942;2022-10-30T00:50:25;20.60;;;13.82;;
15553;SDS011;7878;44.632;10.942;2022-10-30T00:52:59;19.38;;;13.77;;
15553;SDS011;7878;44.632;10.942;2022-10-30T00:55:33;19.13;;;13.07;;
15553;SDS011;7878;44.632;10.942;2022-10-30T00:58:06;17.33;;;12.52;;
15553;SDS011;7878;44.632;10.942;2022-10-30T01:00:34;18.33;;;12.10;;
15553;SDS011;7878;44.632;10.942;2022-10-30T01:03:03;17.45;;;11.13;;
15553;SDS011;7878;44.632;10.942;2022-10-30T01:05:29;14.55;;;11.05;;
15553;SDS011;7878;44.632;10.942;2022-10-30T01:07:57;15.65;;;10.20;;
15553;SDS011;7878;44.632;10.942;2022-10-30T01:10:23;14.40;;;10.63;;
15553;SDS011;7878;44.632;10.942;2022-10-30T01:12:49;13.18;;;9.93;;
15553;SDS011;7878;44.632;10.942;2022-10-30T01:15:17;14.55;;;9.77;;
15553;SDS011;7878;44.632;10.942;2022-10-30T01:21:08;11.57;;;8.98;;
15553;SDS011;7878;44.632;10.942;2022-10-30T01:24:21;11.40;;;8.57;;
15553;SDS011;7878;44.632;10.942;2022-10-30T01:35:38;9.60;;;6.75;;
15553;SDS011;7878;44.632;10.942;2022-10-30T01:38:18;9.77;;;6.60;;
15553;SDS011;7878;44.632;10.942;2022-10-30T01:40:45;11.82;;;6.90;;
15553;SDS011;7878;44.632;10.942;2022-10-30T01:43:11;9.68;;;7.10;;
15553;SDS011;7878;44.632;10.942;2022-10-30T01:54:55;11.95;;;6.57;;
15553;SDS011;7878;44.632;10.942;2022-10-30T02:02:15;11.13;;;7.28;;
15553;SDS011;7878;44.632;10.942;2022-10-30T02:04:42;13.68;;;7.25;;
15553;SDS011;7878;44.632;10.942;2022-10-30T02:07:08;10.35;;;6.68;;
15553;SDS011;7878;44.632;10.942;2022-10-30T02:09:35;10.13;;;6.82;;
15553;SDS011;7878;44.632;10.942;2022-10-30T02:12:01;10.48;;;6.80;;
15553;SDS011;7878;44.632;10.942;2022-10-30T02:15:01;10.73;;;7.03;;
15553;SDS011;7878;44.632;10.942;2022-10-30T02:17:23;10.18;;;6.50;;
15553;SDS011;7878;44.632;10.942;2022-10-30T02:19:49;10.95;;;7.05;;
15553;SDS011;7878;44.632;10.942;2022-10-30T02:22:15;7.38;;;6.35;;
15553;SDS011;7878;44.632;10.942;2022-10-30T02:24:42;9.73;;;6.18;;
15553;SDS011;7878;44.632;10.942;2022-10-30T02:27:08;9.88;;;5.95;;
15553;SDS011;7878;44.632;10.942;2022-10-30T02:29:34;9.52;;;5.97;;
15553;SDS011;7878;44.632;10.942;2022-10-30T02:31:59;9.30;;;6.38;;
15553;SDS011;7878;44.632;10.942;2022-10-30T02:34:25;8.10;;;6.20;;
15553;SDS011;7878;44.632;10.942;2022-10-30T02:36:51;13.43;;;6.72;;
15553;SDS011;7878;44.632;10.942;2022-10-30T02:39:17;7.20;;;6.18;;
15553;SDS011;7878;44.632;10.942;2022-10-30T02:41:44;10.48;;;6.95;;
15553;SDS011;7878;44.632;10.942;2022-10-30T02:44:09;11.13;;;7.45;;
15553;SDS011;7878;44.632;10.942;2022-10-30T02:46:35;7.95;;;6.32;;
15553;SDS011;7878;44.632;10.942;2022-10-30T02:49:01;9.15;;;6.50;;
15553;SDS011;7878;44.632;10.942;2022-10-30T02:51:26;9.93;;;7.25;;
15553;SDS011;7878;44.632;10.942;2022-10-30T02:53:55;11.05;;;6.65;;
15553;SDS011;7878;44.632;10.942;2022-10-30T02:56:20;12.38;;;6.72;;
15553;SDS011;7878;44.632;10.942;2022-10-30T02:58:46;11.63;;;7.03;;
15553;SDS011;7878;44.632;10.942;2022-10-30T03:01:15;9.73;;;7.20;;
15553;SDS011;7878;44.632;10.942;2022-10-30T03:03:42;9.93;;;6.97;;
15553;SDS011;7878;44.632;10.942;2022-10-30T03:06:09;8.90;;;7.03;;
15553;SDS011;7878;44.632;10.942;2022-10-30T03:08:36;14.20;;;7.05;;
15553;SDS011;7878;44.632;10.942;2022-10-30T03:11:03;13.18;;;7.03;;
15553;SDS011;7878;44.632;10.942;2022-10-30T03:13:33;9.68;;;7.47;;
15553;SDS011;7878;44.632;10.942;2022-10-30T03:16:04;11.93;;;7.03;;
15553;SDS011;7878;44.632;10.942;2022-10-30T03:18:34;15.70;;;7.82;;
15553;SDS011;7878;44.632;10.942;2022-10-30T03:21:01;9.95;;;7.28;;
15553;SDS011;7878;44.632;10.942;2022-10-30T03:23:29;10.52;;;7.40;;
15553;SDS011;7878;44.632;10.942;2022-10-30T03:25:56;10.55;;;7.72;;
15553;SDS011;7878;44.632;10.942;2022-10-30T03:28:22;9.52;;;7.53;;
15553;SDS011;7878;44.632;10.942;2022-10-30T03:30:50;13.52;;;8.00;;
15553;SDS011;7878;44.632;10.942;2022-10-30T03:33:16;10.05;;;7.70;;
15553;SDS011;7878;44.632;10.942;2022-10-30T03:35:43;11.15;;;7.63;;
15553;SDS011;7878;44.632;10.942;2022-10-30T03:38:10;14.40;;;8.07;;
15553;SDS011;7878;44.632;10.942;2022-10-30T03:40:36;11.05;;;7.88;;
15553;SDS011;7878;44.632;10.942;2022-10-30T03:43:01;14.55;;;8.27;;
15553;SDS011;7878;44.632;10.942;2022-10-30T03:45:27;12.20;;;8.48;;
15553;SDS011;7878;44.632;10.942;2022-10-30T03:47:53;11.60;;;8.05;;
15553;SDS011;7878;44.632;10.942;2022-10-30T03:50:18;11.98;;;8.10;;
15553;SDS011;7878;44.632;10.942;2022-10-30T03:52:44;12.50;;;8.13;;
15553;SDS011;7878;44.632;10.942;2022-10-30T03:55:10;11.27;;;7.57;;
15553;SDS011;7878;44.632;10.942;2022-10-30T03:57:36;11.45;;;7.63;;
15553;SDS011;7878;44.632;10.942;2022-10-30T04:00:03;12.77;;;7.57;;
15553;SDS011;7878;44.632;10.942;2022-10-30T04:02:29;12.88;;;7.65;;
15553;SDS011;7878;44.632;10.942;2022-10-30T04:04:55;10.32;;;7.70;;
15553;SDS011;7878;44.632;10.942;2022-10-30T04:07:21;17.70;;;8.25;;
15553;SDS011;7878;44.632;10.942;2022-10-30T04:09:46;12.77;;;7.80;;
15553;SDS011;7878;44.632;10.942;2022-10-30T04:12:12;9.13;;;7.85;;
15553;SDS011;7878;44.632;10.942;2022-10-30T04:14:37;15.52;;;8.32;;
15553;SDS011;7878;44.632;10.942;2022-10-30T04:17:03;9.82;;;7.63;;
15553;SDS011;7878;44.632;10.942;2022-10-30T04:19:30;14.85;;;8.43;;
15553;SDS011;7878;44.632;10.942;2022-10-30T04:21:56;14.68;;;8.60;;
15553;SDS011;7878;44.632;10.942;2022-10-30T04:24:21;11.05;;;8.25;;
15553;SDS011;7878;44.632;10.942;2022-10-30T04:26:47;11.13;;;8.23;;
15553;SDS011;7878;44.632;10.942;2022-10-30T04:29:13;11.63;;;8.68;;
15553;SDS011;7878;44.632;10.942;2022-10-30T04:31:39;11.32;;;8.63;;
15553;SDS011;7878;44.632;10.942;2022-10-30T04:34:04;10.07;;;7.90;;
15553;SDS011;7878;44.632;10.942;2022-10-30T04:36:30;12.63;;;8.75;;
15553;SDS011;7878;44.632;10.942;2022-10-30T04:38:58;11.00;;;7.43;;
15553;SDS011;7878;44.632;10.942;2022-10-30T04:41:24;16.50;;;7.35;;
15553;SDS011;7878;44.632;10.942;2022-10-30T04:43:50;14.43;;;6.20;;
15553;SDS011;7878;44.632;10.942;2022-10-30T04:46:16;8.88;;;5.90;;
15553;SDS011;7878;44.632;10.942;2022-10-30T04:48:42;11.70;;;5.85;;
15553;SDS011;7878;44.632;10.942;2022-10-30T04:51:09;11.10;;;6.15;;
15553;SDS011;7878;44.632;10.942;2022-10-30T04:53:36;7.57;;;5.27;;
15553;SDS011;7878;44.632;10.942;2022-10-30T04:56:02;9.40;;;6.50;;
15553;SDS011;7878;44.632;10.942;2022-10-30T04:58:28;7.80;;;5.90;;
15553;SDS011;7878;44.632;10.942;2022-10-30T05:00:54;7.88;;;5.82;;
15553;SDS011;7878;44.632;10.942;2022-10-30T05:03:21;8.52;;;4.90;;
15553;SDS011;7878;44.632;10.942;2022-10-30T05:05:58;8.77;;;5.27;;
15553;SDS011;7878;44.632;10.942;2022-10-30T05:08:26;7.07;;;5.03;;
15553;SDS011;7878;44.632;10.942;2022-10-30T05:10:52;8.05;;;4.30;;
15553;SDS011;7878;44.632;10.942;2022-10-30T05:13:18;9.97;;;4.97;;
15553;SDS011;7878;44.632;10.942;2022-10-30T05:15:44;5.65;;;4.68;;
15553;SDS011;7878;44.632;10.942;2022-10-30T05:18:10;7.67;;;5.20;;
15553;SDS011;7878;44.632;10.942;2022-10-30T05:20:35;14.37;;;6.13;;
15553;SDS011;7878;44.632;10.942;2022-10-30T05:23:01;9.27;;;5.40;;
15553;SDS011;7878;44.632;10.942;2022-10-30T05:25:27;14.13;;;5.70;;
15553;SDS011;7878;44.632;10.942;2022-10-30T05:28:00;8.13;;;5.47;;
15553;SDS011;7878;44.632;10.942;2022-10-30T05:30:28;13.63;;;5.47;;
15553;SDS011;7878;44.632;10.942;2022-10-30T05:33:05;8.43;;;5.37;;
15553;SDS011;7878;44.632;10.942;2022-10-30T05:35:33;6.97;;;5.03;;
15553;SDS011;7878;44.632;10.942;2022-10-30T05:38:00;10.93;;;5.03;;
15553;SDS011;7878;44.632;10.942;2022-10-30T05:40:27;7.00;;;5.07;;
15553;SDS011;7878;44.632;10.942;2022-10-30T05:42:52;8.90;;;4.87;;
15553;SDS011;7878;44.632;10.942;2022-10-30T05:45:18;13.57;;;5.15;;
15553;SDS011;7878;44.632;10.942;2022-10-30T05:47:52;14.67;;;5.80;;
15553;SDS011;7878;44.632;10.942;2022-10-30T05:50:26;8.63;;;5.17;;
15553;SDS011;7878;44.632;10.942;2022-10-30T05:52:59;13.50;;;5.40;;
15553;SDS011;7878;44.632;10.942;2022-10-30T05:55:29;8.83;;;5.07;;
15553;SDS011;7878;44.632;10.942;2022-10-30T05:57:58;9.27;;;5.40;;
15553;SDS011;7878;44.632;10.942;2022-10-30T06:00:25;12.97;;;5.50;;
15553;SDS011;7878;44.632;10.942;2022-10-30T06:02:57;10.98;;;6.18;;
15553;SDS011;7878;44.632;10.942;2022-10-30T06:05:28;13.80;;;6.28;;
15553;SDS011;7878;44.632;10.942;2022-10-30T06:07:55;9.73;;;5.90;;
15553;SDS011;7878;44.632;10.942;2022-10-30T06:10:24;11.73;;;6.17;;
15553;SDS011;7878;44.632;10.942;2022-10-30T06:12:51;10.13;;;7.00;;
15553;SDS011;7878;44.632;10.942;2022-10-30T06:15:26;8.63;;;6.27;;
15553;SDS011;7878;44.632;10.942;2022-10-30T06:17:53;11.63;;;6.77;;
15553;SDS011;7878;44.632;10.942;2022-10-30T06:20:19;10.60;;;6.93;;
15553;SDS011;7878;44.632;10.942;2022-10-30T06:22:56;9.60;;;5.83;;
15553;SDS011;7878;44.632;10.942;2022-10-30T06:25:22;36.85;;;7.55;;
15553;SDS011;7878;44.632;10.942;2022-10-30T06:27:48;11.33;;;6.33;;
15553;SDS011;7878;44.632;10.942;2022-10-30T06:30:14;11.70;;;6.33;;
15553;SDS011;7878;44.632;10.942;2022-10-30T06:32:40;10.13;;;6.67;;
15553;SDS011;7878;44.632;10.942;2022-10-30T06:35:06;15.33;;;7.00;;
15553;SDS011;7878;44.632;10.942;2022-10-30T06:37:32;11.80;;;6.68;;
15553;SDS011;7878;44.632;10.942;2022-10-30T06:39:58;8.67;;;6.40;;
15553;SDS011;7878;44.632;10.942;2022-10-30T06:42:24;9.57;;;6.63;;
15553;SDS011;7878;44.632;10.942;2022-10-30T06:44:50;10.10;;;6.65;;
15553;SDS011;7878;44.632;10.942;2022-10-30T06:47:15;11.98;;;6.40;;
15553;SDS011;7878;44.632;10.942;2022-10-30T06:49:41;11.27;;;6.20;;
15553;SDS011;7878;44.632;10.942;2022-10-30T06:52:07;8.33;;;6.03;;
15553;SDS011;7878;44.632;10.942;2022-10-30T06:54:32;9.50;;;5.95;;
15553;SDS011;7878;44.632;10.942;2022-10-30T06:56:58;9.95;;;5.47;;
15553;SDS011;7878;44.632;10.942;2022-10-30T06:59:24;9.20;;;5.82;;
15553;SDS011;7878;44.632;10.942;2022-10-30T07:01:49;11.23;;;6.40;;
15553;SDS011;7878;44.632;10.942;2022-10-30T07:04:15;11.00;;;5.65;;
15553;SDS011;7878;44.632;10.942;2022-10-30T07:06:41;12.20;;;5.22;;
15553;SDS011;7878;44.632;10.942;2022-10-30T07:09:06;11.65;;;5.53;;
15553;SDS011;7878;44.632;10.942;2022-10-30T07:11:32;14.55;;;5.70;;
15553;SDS011;7878;44.632;10.942;2022-10-30T07:13:57;9.80;;;5.07;;
15553;SDS011;7878;44.632;10.942;2022-10-30T07:16:23;11.93;;;6.22;;
15553;SDS011;7878;44.632;10.942;2022-10-30T07:18:49;9.93;;;5.15;;
15553;SDS011;7878;44.632;10.942;2022-10-30T07:21:15;13.13;;;5.13;;
15553;SDS011;7878;44.632;10.942;2022-10-30T07:23:41;9.13;;;4.22;;
15553;SDS011;7878;44.632;10.942;2022-10-30T07:26:07;9.20;;;4.38;;
15553;SDS011;7878;44.632;10.942;2022-10-30T07:28:32;7.50;;;4.00;;
15553;SDS011;7878;44.632;10.942;2022-10-30T07:30:58;15.32;;;5.78;;
15553;SDS011;7878;44.632;10.942;2022-10-30T07:33:24;14.32;;;4.38;;
15553;SDS011;7878;44.632;10.942;2022-10-30T07:35:49;9.15;;;4.28;;
15553;SDS011;7878;44.632;10.942;2022-10-30T07:38:15;6.35;;;4.50;;
15553;SDS011;7878;44.632;10.942;2022-10-30T07:40:41;8.15;;;4.28;;
15553;SDS011;7878;44.632;10.942;2022-10-30T07:43:07;8.02;;;4.28;;
15553;SDS011;7878;44.632;10.942;2022-10-30T07:45:37;12.35;;;4.45;;
15553;SDS011;7878;44.632;10.942;2022-10-30T07:48:03;9.70;;;3.60;;
15553;SDS011;7878;44.632;10.942;2022-10-30T07:50:30;6.53;;;3.45;;
15553;SDS011;7878;44.632;10.942;2022-10-30T07:52:56;10.88;;;4.80;;
15553;SDS011;7878;44.632;10.942;2022-10-30T07:55:22;7.68;;;4.10;;
15553;SDS011;7878;44.632;10.942;2022-10-30T07:57:48;10.10;;;4.00;;
15553;SDS011;7878;44.632;10.942;2022-10-30T08:00:14;17.58;;;4.00;;
15553;SDS011;7878;44.632;10.942;2022-10-30T08:02:40;11.98;;;4.13;;
15553;SDS011;7878;44.632;10.942;2022-10-30T08:05:07;10.32;;;3.70;;
15553;SDS011;7878;44.632;10.942;2022-10-30T08:07:34;7.18;;;4.28;;
15553;SDS011;7878;44.632;10.942;2022-10-30T08:10:01;10.90;;;3.97;;
15553;SDS011;7878;44.632;10.942;2022-10-30T08:12:26;12.00;;;3.75;;
15553;SDS011;7878;44.632;10.942;2022-10-30T08:14:53;9.48;;;4.28;;
15553;SDS011;7878;44.632;10.942;2022-10-30T08:17:19;7.82;;;4.03;;
15553;SDS011;7878;44.632;10.942;2022-10-30T08:19:45;14.82;;;4.85;;
15553;SDS011;7878;44.632;10.942;2022-10-30T08:22:11;6.95;;;4.18;;
15553;SDS011;7878;44.632;10.942;2022-10-30T08:24:37;8.75;;;3.92;;
15553;SDS011;7878;44.632;10.942;2022-10-30T08:27:04;11.82;;;3.95;;
15553;SDS011;7878;44.632;10.942;2022-10-30T08:29:30;6.15;;;3.92;;
15553;SDS011;7878;44.632;10.942;2022-10-30T08:31:56;13.02;;;4.85;;
15553;SDS011;7878;44.632;10.942;2022-10-30T08:34:21;9.60;;;4.07;;
15553;SDS011;7878;44.632;10.942;2022-10-30T08:36:48;6.40;;;3.47;;
15553;SDS011;7878;44.632;10.942;2022-10-30T08:39:14;12.30;;;3.90;;
15553;SDS011;7878;44.632;10.942;2022-10-30T08:41:40;9.32;;;3.97;;
15553;SDS011;7878;44.632;10.942;2022-10-30T08:44:06;16.02;;;4.72;;
15553;SDS011;7878;44.632;10.942;2022-10-30T08:46:32;12.40;;;4.32;;
15553;SDS011;7878;44.632;10.942;2022-10-30T08:48:57;7.22;;;4.18;;
15553;SDS011;7878;44.632;10.942;2022-10-30T08:51:23;10.10;;;5.57;;
15553;SDS011;7878;44.632;10.942;2022-10-30T08:53:48;16.20;;;7.93;;
15553;SDS011;7878;44.632;10.942;2022-10-30T08:56:15;15.15;;;8.45;;
15553;SDS011;7878;44.632;10.942;2022-10-30T08:58:41;13.38;;;8.95;;
15553;SDS011;7878;44.632;10.942;2022-10-30T09:01:07;17.15;;;9.85;;
15553;SDS011;7878;44.632;10.942;2022-10-30T09:03:32;17.38;;;10.15;;
15553;SDS011;7878;44.632;10.942;2022-10-30T09:05:58;20.30;;;11.30;;
15553;SDS011;7878;44.632;10.942;2022-10-30T09:08:25;19.48;;;10.90;;
15553;SDS011;7878;44.632;10.942;2022-10-30T09:10:55;19.88;;;10.50;;
15553;SDS011;7878;44.632;10.942;2022-10-30T09:13:21;19.45;;;11.98;;
15553;SDS011;7878;44.632;10.942;2022-10-30T09:15:48;21.17;;;12.45;;
15553;SDS011;7878;44.632;10.942;2022-10-30T09:18:13;22.85;;;13.38;;
15553;SDS011;7878;44.632;10.942;2022-10-30T09:20:39;23.15;;;13.15;;
15553;SDS011;7878;44.632;10.942;2022-10-30T09:23:05;21.77;;;12.55;;
15553;SDS011;7878;44.632;10.942;2022-10-30T09:25:30;24.85;;;13.27;;
15553;SDS011;7878;44.632;10.942;2022-10-30T09:27:56;21.77;;;12.65;;
15553;SDS011;7878;44.632;10.942;2022-10-30T09:30:22;26.02;;;13.75;;
15553;SDS011;7878;44.632;10.942;2022-10-30T09:32:57;25.65;;;14.85;;
15553;SDS011;7878;44.632;10.942;2022-10-30T09:35:26;35.35;;;15.60;;
15553;SDS011;7878;44.632;10.942;2022-10-30T09:37:52;27.58;;;15.27;;
15553;SDS011;7878;44.632;10.942;2022-10-30T09:40:21;25.25;;;15.20;;
15553;SDS011;7878;44.632;10.942;2022-10-30T09:42:53;23.08;;;15.23;;
15553;SDS011;7878;44.632;10.942;2022-10-30T09:51:29;20.23;;;14.70;;
15553;SDS011;7878;44.632;10.942;2022-10-30T09:59:58;30.85;;;17.02;;
15553;SDS011;7878;44.632;10.942;2022-10-30T10:02:33;44.17;;;23.52;;
15553;SDS011;7878;44.632;10.942;2022-10-30T10:05:33;28.92;;;16.75;;
15553;SDS011;7878;44.632;10.942;2022-10-30T10:08:22;30.52;;;16.50;;
15553;SDS011;7878;44.632;10.942;2022-10-30T10:10:57;25.85;;;16.42;;
15553;SDS011;7878;44.632;10.942;2022-10-30T10:21:49;29.00;;;16.60;;
15553;SDS011;7878;44.632;10.942;2022-10-30T10:24:29;31.75;;;16.80;;
15553;SDS011;7878;44.632;10.942;2022-10-30T10:27:09;29.73;;;18.08;;
15553;SDS011;7878;44.632;10.942;2022-10-30T10:52:34;25.90;;;17.55;;
15553;SDS011;7878;44.632;10.942;2022-10-30T10:55:01;26.00;;;18.02;;
15553;SDS011;7878;44.632;10.942;2022-10-30T10:57:39;29.65;;;18.17;;
15553;SDS011;7878;44.632;10.942;2022-10-30T11:00:18;24.45;;;17.45;;
15553;SDS011;7878;44.632;10.942;2022-10-30T11:02:57;29.80;;;17.60;;
15553;SDS011;7878;44.632;10.942;2022-10-30T11:08:15;28.00;;;19.52;;
15553;SDS011;7878;44.632;10.942;2022-10-30T11:13:28;27.58;;;17.70;;
15553;SDS011;7878;44.632;10.942;2022-10-30T11:15:59;25.73;;;18.00;;
15553;SDS011;7878;44.632;10.942;2022-10-30T11:18:37;23.55;;;18.13;;
15553;SDS011;7878;44.632;10.942;2022-10-30T11:21:12;27.88;;;18.55;;
15553;SDS011;7878;44.632;10.942;2022-10-30T11:23:44;28.60;;;19.05;;
15553;SDS011;7878;44.632;10.942;2022-10-30T11:31:18;38.30;;;28.05;;
15553;SDS011;7878;44.632;10.942;2022-10-30T11:33:51;24.50;;;17.80;;
15553;SDS011;7878;44.632;10.942;2022-10-30T11:36:26;23.48;;;17.95;;
15553;SDS011;7878;44.632;10.942;2022-10-30T11:38:51;26.02;;;17.15;;
15553;SDS011;7878;44.632;10.942;2022-10-30T11:41:22;22.77;;;18.60;;
15553;SDS011;7878;44.632;10.942;2022-10-30T11:43:47;22.77;;;16.52;;
15553;SDS011;7878;44.632;10.942;2022-10-30T11:46:21;28.13;;;18.80;;
15553;SDS011;7878;44.632;10.942;2022-10-30T11:48:47;27.23;;;16.00;;
15553;SDS011;7878;44.632;10.942;2022-10-30T11:51:28;18.95;;;16.60;;
15553;SDS011;7878;44.632;10.942;2022-10-30T11:54:04;23.33;;;16.95;;
15553;SDS011;7878;44.632;10.942;2022-10-30T11:56:31;19.50;;;15.52;;
15553;SDS011;7878;44.632;10.942;2022-10-30T11:58:59;22.45;;;16.50;;
15553;SDS011;7878;44.632;10.942;2022-10-30T12:01:28;22.50;;;16.63;;
15553;SDS011;7878;44.632;10.942;2022-10-30T12:03:56;21.55;;;16.63;;
15553;SDS011;7878;44.632;10.942;2022-10-30T12:06:36;18.20;;;16.27;;
15553;SDS011;7878;44.632;10.942;2022-10-30T12:09:12;25.50;;;16.88;;
15553;SDS011;7878;44.632;10.942;2022-10-30T12:11:44;23.05;;;16.70;;
15553;SDS011;7878;44.632;10.942;2022-10-30T12:14:20;20.80;;;16.58;;
15553;SDS011;7878;44.632;10.942;2022-10-30T12:16:48;22.15;;;17.42;;
15553;SDS011;7878;44.632;10.942;2022-10-30T12:19:16;26.23;;;16.73;;
15553;SDS011;7878;44.632;10.942;2022-10-30T12:21:45;21.05;;;14.40;;
15553;SDS011;7878;44.632;10.942;2022-10-30T12:24:54;20.30;;;16.20;;
15553;SDS011;7878;44.632;10.942;2022-10-30T12:27:02;25.08;;;16.65;;
15553;SDS011;7878;44.632;10.942;2022-10-30T12:29:36;24.25;;;16.63;;
15553;SDS011;7878;44.632;10.942;2022-10-30T12:32:22;23.60;;;17.67;;
15553;SDS011;7878;44.632;10.942;2022-10-30T12:35:10;20.88;;;16.00;;
15553;SDS011;7878;44.632;10.942;2022-10-30T12:38:08;24.08;;;14.90;;
15553;SDS011;7878;44.632;10.942;2022-10-30T12:43:37;21.35;;;15.32;;
15553;SDS011;7878;44.632;10.942;2022-10-30T12:46:20;21.67;;;13.27;;
15553;SDS011;7878;44.632;10.942;2022-10-30T12:51:54;17.27;;;11.77;;
15553;SDS011;7878;44.632;10.942;2022-10-30T12:57:14;18.15;;;11.98;;
15553;SDS011;7878;44.632;10.942;2022-10-30T12:59:50;19.30;;;12.10;;
15553;SDS011;7878;44.632;10.942;2022-10-30T13:05:05;21.13;;;12.77;;
15553;SDS011;7878;44.632;10.942;2022-10-30T13:07:49;25.95;;;13.38;;
15553;SDS011;7878;44.632;10.942;2022-10-30T13:10:41;18.95;;;10.43;;
15553;SDS011;7878;44.632;10.942;2022-10-30T13:13:16;20.80;;;11.18;;
15553;SDS011;7878;44.632;10.942;2022-10-30T13:15:47;18.13;;;9.98;;
15553;SDS011;7878;44.632;10.942;2022-10-30T13:18:21;18.95;;;9.70;;
15553;SDS011;7878;44.632;10.942;2022-10-30T13:20:56;21.63;;;12.60;;
15553;SDS011;7878;44.632;10.942;2022-10-30T13:26:29;21.73;;;14.15;;
15553;SDS011;7878;44.632;10.942;2022-10-30T13:31:54;18.70;;;12.73;;
15553;SDS011;7878;44.632;10.942;2022-10-30T13:40:22;20.80;;;10.27;;
15553;SDS011;7878;44.632;10.942;2022-10-30T13:42:54;11.65;;;8.32;;
15553;SDS011;7878;44.632;10.942;2022-10-30T13:45:43;17.38;;;8.75;;
15553;SDS011;7878;44.632;10.942;2022-10-30T13:53:54;16.50;;;8.13;;
15553;SDS011;7878;44.632;10.942;2022-10-30T13:56:42;19.55;;;8.65;;
15553;SDS011;7878;44.632;10.942;2022-10-30T14:13:14;12.05;;;6.18;;
15553;SDS011;7878;44.632;10.942;2022-10-30T14:15:43;13.75;;;5.53;;
15553;SDS011;7878;44.632;10.942;2022-10-30T14:20:39;11.75;;;6.43;;
15553;SDS011;7878;44.632;10.942;2022-10-30T14:28:34;11.02;;;6.10;;
15553;SDS011;7878;44.632;10.942;2022-10-30T14:39:23;15.07;;;8.23;;
15553;SDS011;7878;44.632;10.942;2022-10-30T14:50:19;25.83;;;6.65;;
15553;SDS011;7878;44.632;10.942;2022-10-30T14:58:39;11.45;;;5.72;;
15553;SDS011;7878;44.632;10.942;2022-10-30T15:06:53;9.88;;;5.45;;
15553;SDS011;7878;44.632;10.942;2022-10-30T15:09:29;20.15;;;6.68;;
15553;SDS011;7878;44.632;10.942;2022-10-30T15:15:18;14.55;;;5.32;;
15553;SDS011;7878;44.632;10.942;2022-10-30T15:17:48;16.30;;;5.35;;
15553;SDS011;7878;44.632;10.942;2022-10-30T15:20:26;23.35;;;6.43;;
15553;SDS011;7878;44.632;10.942;2022-10-30T15:23:03;15.98;;;5.88;;
15553;SDS011;7878;44.632;10.942;2022-10-30T15:25:45;31.15;;;11.32;;
15553;SDS011;7878;44.632;10.942;2022-10-30T15:28:35;42.08;;;14.65;;
15553;SDS011;7878;44.632;10.942;2022-10-30T15:33:31;26.75;;;10.88;;
15553;SDS011;7878;44.632;10.942;2022-10-30T15:36:01;23.85;;;8.98;;
15553;SDS011;7878;44.632;10.942;2022-10-30T15:38:27;20.40;;;6.43;;
15553;SDS011;7878;44.632;10.942;2022-10-30T15:41:02;25.55;;;7.65;;
15553;SDS011;7878;44.632;10.942;2022-10-30T15:43:33;32.80;;;7.05;;
15553;SDS011;7878;44.632;10.942;2022-10-30T15:46:00;13.43;;;5.00;;
15553;SDS011;7878;44.632;10.942;2022-10-30T15:48:32;14.60;;;5.22;;
15553;SDS011;7878;44.632;10.942;2022-10-30T15:51:02;13.13;;;5.18;;
15553;SDS011;7878;44.632;10.942;2022-10-30T15:53:43;16.40;;;5.50;;
15553;SDS011;7878;44.632;10.942;2022-10-30T15:58:50;17.45;;;6.13;;
15553;SDS011;7878;44.632;10.942;2022-10-30T16:01:26;15.80;;;7.43;;
15553;SDS011;7878;44.632;10.942;2022-10-30T16:03:58;12.32;;;5.82;;
15553;SDS011;7878;44.632;10.942;2022-10-30T16:06:26;14.80;;;6.60;;
15553;SDS011;7878;44.632;10.942;2022-10-30T16:08:53;11.52;;;5.97;;
15553;SDS011;7878;44.632;10.942;2022-10-30T16:11:19;10.57;;;5.15;;
15553;SDS011;7878;44.632;10.942;2022-10-30T16:13:46;12.80;;;5.50;;
15553;SDS011;7878;44.632;10.942;2022-10-30T16:16:16;15.80;;;5.13;;
15553;SDS011;7878;44.632;10.942;2022-10-30T16:18:50;38.47;;;8.65;;
15553;SDS011;7878;44.632;10.942;2022-10-30T16:21:17;38.88;;;9.70;;
15553;SDS011;7878;44.632;10.942;2022-10-30T16:23:50;28.75;;;7.50;;
15553;SDS011;7878;44.632;10.942;2022-10-30T16:26:26;23.85;;;7.63;;
15553;SDS011;7878;44.632;10.942;2022-10-30T16:29:01;32.28;;;13.90;;
15553;SDS011;7878;44.632;10.942;2022-10-30T16:31:43;25.23;;;12.57;;
15553;SDS011;7878;44.632;10.942;2022-10-30T16:34:24;19.48;;;8.68;;
15553;SDS011;7878;44.632;10.942;2022-10-30T16:36:55;22.23;;;10.57;;
15553;SDS011;7878;44.632;10.942;2022-10-30T16:39:22;21.52;;;9.20;;
15553;SDS011;7878;44.632;10.942;2022-10-30T16:41:50;22.23;;;8.98;;
15553;SDS011;7878;44.632;10.942;2022-10-30T16:44:17;22.85;;;8.63;;
15553;SDS011;7878;44.632;10.942;2022-10-30T16:49:21;20.75;;;9.85;;
15553;SDS011;7878;44.632;10.942;2022-10-30T16:51:52;125.18;;;58.03;;
15553;SDS011;7878;44.632;10.942;2022-10-30T16:54:40;118.28;;;70.53;;
15553;SDS011;7878;44.632;10.942;2022-10-30T16:57:54;58.83;;;28.98;;
15553;SDS011;7878;44.632;10.942;2022-10-30T17:00:02;22.63;;;13.60;;
15553;SDS011;7878;44.632;10.942;2022-10-30T17:02:30;19.58;;;9.63;;
15553;SDS011;7878;44.632;10.942;2022-10-30T17:07:27;29.73;;;19.17;;
15553;SDS011;7878;44.632;10.942;2022-10-30T17:09:53;38.28;;;22.80;;
15553;SDS011;7878;44.632;10.942;2022-10-30T17:12:27;25.50;;;12.40;;
15553;SDS011;7878;44.632;10.942;2022-10-30T17:17:44;23.40;;;13.48;;
15553;SDS011;7878;44.632;10.942;2022-10-30T17:20:35;21.95;;;8.65;;
15553;SDS011;7878;44.632;10.942;2022-10-30T17:23:19;21.45;;;12.02;;
15553;SDS011;7878;44.632;10.942;2022-10-30T17:25:45;21.90;;;11.43;;
15553;SDS011;7878;44.632;10.942;2022-10-30T17:28:24;25.90;;;13.60;;
15553;SDS011;7878;44.632;10.942;2022-10-30T17:30:51;21.65;;;11.43;;
15553;SDS011;7878;44.632;10.942;2022-10-30T17:33:24;32.95;;;12.27;;
15553;SDS011;7878;44.632;10.942;2022-10-30T17:35:54;30.80;;;15.55;;
15553;SDS011;7878;44.632;10.942;2022-10-30T17:38:20;45.10;;;22.58;;
15553;SDS011;7878;44.632;10.942;2022-10-30T17:40:45;48.45;;;31.60;;
15553;SDS011;7878;44.632;10.942;2022-10-30T17:43:11;52.67;;;33.22;;